< < Back
Terminal Aerodrome Forecast


Current Version              Previous Versions:   1  2  3  4  5  6  7  8  9  

Terminal Aerodrome Forecast

052
FTUS42 KCHS 020525
TAFSAV
TAF
KSAV 020525Z 0206/0306 07006KT P6SM SCT010
     FM021200 09007KT P6SM SCT015 BKN030
     FM021700 14012KT P6SM SCT035
     FM030000 17007KT P6SM SCT250=

Latest METAR

467
SAUS80 KWBC 020600 RRB
MTRSAV
METAR KSAV 020553Z AUTO 09007KT 10SM CLR 16/14 A3019 RMK AO2 SLP224
T01610139 10167 20156 50001 TSNO


USA.gov is the U.S. government's official web portal to all federal, state and local government web resources and services.